createdAt,value
2018-06-10T00:00:43.738Z,57.18
2018-06-10T00:01:53.418Z,57.28
2018-06-10T00:03:03.334Z,57.28
2018-06-10T00:04:12.249Z,57.28
2018-06-10T00:05:21.417Z,57.18
2018-06-10T00:06:31.359Z,57.18
2018-06-10T00:07:41.357Z,57.47
2018-06-10T00:08:50.775Z,57.08
2018-06-10T00:09:59.952Z,57.08
2018-06-10T00:11:09.119Z,57.57
2018-06-10T00:12:18.079Z,57.28
2018-06-10T00:13:27.504Z,57.08
2018-06-10T00:14:37.210Z,57.57
2018-06-10T00:15:46.126Z,57.67
2018-06-10T00:16:55.928Z,57.57
2018-06-10T00:18:05.094Z,57.28
2018-06-10T00:19:14.269Z,57.47
2018-06-10T00:20:23.422Z,57.47
2018-06-10T00:21:32.333Z,57.08
2018-06-10T00:22:41.753Z,57.08
2018-06-10T00:23:51.190Z,57.08
2018-06-10T00:25:00.641Z,57.47
2018-06-10T00:26:09.840Z,57.08
2018-06-10T00:27:19.545Z,57.47
2018-06-10T00:28:29.262Z,57.57
2018-06-10T00:29:39.002Z,57.28
2018-06-10T00:30:48.170Z,57.37
2018-06-10T00:31:57.435Z,57.37
2018-06-10T00:33:06.613Z,57.47
2018-06-10T00:34:16.293Z,57.47
2018-06-10T00:35:25.726Z,57.57
2018-06-10T00:36:34.923Z,57.47
2018-06-10T00:37:43.811Z,57.37
2018-06-10T00:38:53.749Z,57.57
2018-06-10T00:40:02.927Z,57.47
2018-06-10T00:41:11.838Z,57.57
2018-06-10T00:42:21.294Z,57.47
2018-06-10T00:43:31.232Z,57.57
2018-06-10T00:44:40.893Z,57.37
2018-06-10T00:45:50.573Z,57.57
2018-06-10T00:47:00.257Z,57.37
2018-06-10T00:48:09.428Z,57.57
2018-06-10T00:49:19.163Z,57.57
2018-06-10T00:50:28.334Z,57.47
2018-06-10T00:51:37.520Z,57.57
2018-06-10T00:52:46.954Z,57.47
2018-06-10T00:53:56.121Z,57.47
2018-06-10T00:55:05.810Z,57.47
2018-06-10T00:56:14.968Z,57.57
2018-06-10T00:57:24.411Z,57.57
2018-06-10T00:58:34.148Z,57.57
2018-06-10T00:59:43.537Z,57.57
2018-06-10T01:00:53.348Z,57.47
2018-06-10T01:02:02.516Z,57.47
2018-06-10T01:03:11.999Z,57.37
2018-06-10T01:04:20.924Z,57.47
2018-06-10T01:05:30.077Z,57.47
2018-06-10T01:06:39.511Z,57.47
2018-06-10T01:07:49.041Z,57.47
2018-06-10T01:08:58.761Z,57.28
2018-06-10T01:10:09.040Z,57.08
2018-06-10T01:11:18.721Z,57.18
2018-06-10T01:12:28.138Z,57.57
2018-06-10T01:13:37.555Z,57.18
2018-06-10T01:14:47.478Z,57.18
2018-06-10T01:15:56.412Z,57.28
2018-06-10T01:17:05.851Z,57.28
2018-06-10T01:18:15.817Z,57.28
2018-06-10T01:19:25.253Z,57.28
2018-06-10T01:20:34.683Z,57.28
2018-06-10T01:21:44.386Z,57.37
2018-06-10T01:22:54.066Z,57.37
2018-06-10T01:24:03.243Z,57.08
2018-06-10T01:25:12.919Z,57.28
2018-06-10T01:26:22.600Z,57.37
2018-06-10T01:27:31.756Z,57.47
2018-06-10T01:28:41.179Z,57.37
2018-06-10T01:29:50.854Z,57.47
2018-06-10T01:31:00.022Z,57.28
2018-06-10T01:32:08.925Z,57.47
2018-06-10T01:33:18.340Z,57.37
2018-06-10T01:34:27.777Z,57.57
2018-06-10T01:35:37.714Z,57.47
2018-06-10T01:36:47.638Z,57.28
2018-06-10T01:37:56.526Z,57.37
2018-06-10T01:39:05.444Z,57.67
2018-06-10T01:40:15.117Z,57.57
2018-06-10T01:41:24.804Z,57.37
2018-06-10T01:42:33.736Z,57.57
2018-06-10T01:43:42.942Z,57.37
2018-06-10T01:44:52.111Z,57.47
2018-06-10T01:46:01.263Z,57.47
2018-06-10T01:47:10.180Z,57.57
2018-06-10T01:48:19.604Z,57.57
2018-06-10T01:49:29.533Z,57.37
2018-06-10T01:50:38.777Z,57.67
2018-06-10T01:51:48.441Z,57.67
2018-06-10T01:52:57.887Z,57.47
2018-06-10T01:54:07.055Z,57.37
2018-06-10T01:55:16.476Z,57.47
2018-06-10T01:56:26.159Z,57.57
2018-06-10T01:57:35.319Z,57.47
2018-06-10T01:58:44.988Z,57.47
2018-06-10T01:59:54.424Z,57.47
2018-06-10T02:01:04.100Z,57.57
2018-06-10T02:02:13.512Z,57.57
2018-06-10T02:03:22.926Z,57.57
2018-06-10T02:04:32.341Z,57.57
2018-06-10T02:05:41.280Z,57.37
2018-06-10T02:06:50.711Z,57.37
2018-06-10T02:08:00.378Z,57.57
2018-06-10T02:09:09.583Z,57.47
2018-06-10T02:10:18.970Z,57.47
2018-06-10T02:11:28.951Z,57.57
2018-06-10T02:12:38.376Z,57.67
2018-06-10T02:13:47.804Z,57.57
2018-06-10T02:14:57.472Z,57.47
2018-06-10T02:16:06.902Z,57.57
2018-06-10T02:17:16.582Z,57.37
2018-06-10T02:18:25.591Z,57.47
2018-06-10T02:19:35.027Z,57.57
2018-06-10T02:20:44.964Z,57.47
2018-06-10T02:21:54.376Z,57.57
2018-06-10T02:23:03.794Z,57.57
2018-06-10T02:24:12.966Z,57.57
2018-06-10T02:25:22.396Z,57.57
2018-06-10T02:26:32.098Z,57.67
2018-06-10T02:27:41.531Z,57.76
2018-06-10T02:28:51.197Z,57.76
2018-06-10T02:30:00.643Z,57.76
2018-06-10T02:31:10.072Z,57.76
2018-06-10T02:32:19.222Z,57.86
2018-06-10T02:33:28.641Z,57.86
2018-06-10T02:34:38.319Z,57.67
2018-06-10T02:35:47.807Z,57.86
2018-06-10T02:36:57.221Z,57.96
2018-06-10T02:38:06.943Z,57.86
2018-06-10T02:39:16.627Z,58.05
2018-06-10T02:40:26.316Z,57.96
2018-06-10T02:41:35.234Z,57.67
2018-06-10T02:42:45.171Z,57.67
2018-06-10T02:43:55.157Z,57.86
2018-06-10T02:45:04.088Z,57.76
2018-06-10T02:46:13.271Z,57.67
2018-06-10T02:47:22.441Z,57.96
2018-06-10T02:48:31.894Z,57.67
2018-06-10T02:49:41.839Z,57.86
2018-06-10T02:50:50.988Z,57.86
2018-06-10T02:52:00.412Z,58.25
2018-06-10T02:53:10.349Z,57.96
2018-06-10T02:54:19.783Z,58.25
2018-06-10T02:55:29.485Z,58.25
2018-06-10T02:56:38.931Z,58.05
2018-06-10T02:57:48.615Z,58.05
2018-06-10T02:58:58.310Z,58.25
2018-06-10T03:00:07.741Z,58.05
2018-06-10T03:01:17.174Z,58.05
2018-06-10T03:02:26.876Z,58.15
2018-06-10T03:03:36.047Z,58.15
2018-06-10T03:04:45.192Z,58.12
2018-06-10T03:05:54.363Z,57.96
2018-06-10T03:07:03.257Z,57.96
2018-06-10T03:08:13.191Z,58.05
2018-06-10T03:09:22.638Z,57.96
2018-06-10T03:10:32.068Z,58.05
2018-06-10T03:11:41.755Z,57.96
2018-06-10T03:12:51.182Z,58.03
2018-06-10T03:14:00.605Z,57.96
2018-06-10T03:15:10.045Z,57.93
2018-06-10T03:16:19.750Z,57.93
2018-06-10T03:17:29.690Z,58.12
2018-06-10T03:18:39.363Z,57.93
2018-06-10T03:19:48.795Z,58.12
2018-06-10T03:20:58.471Z,57.93
2018-06-10T03:22:07.909Z,58.03
2018-06-10T03:23:17.331Z,57.93
2018-06-10T03:24:27.005Z,58.03
2018-06-10T03:25:36.942Z,58.12
2018-06-10T03:26:46.605Z,58.12
2018-06-10T03:27:55.793Z,58.03
2018-06-10T03:29:05.484Z,58.12
2018-06-10T03:30:15.163Z,58.25
2018-06-10T03:31:24.840Z,58.12
2018-06-10T03:32:34.524Z,58.12
2018-06-10T03:33:43.957Z,58.15
2018-06-10T03:34:53.385Z,57.93
2018-06-10T03:36:02.805Z,57.96
2018-06-10T03:37:12.216Z,57.93
2018-06-10T03:38:21.124Z,57.96
2018-06-10T03:39:30.291Z,58.03
2018-06-10T03:40:39.441Z,58.51
2018-06-10T03:41:49.148Z,58.51
2018-06-10T03:42:58.306Z,58.05
2018-06-10T03:44:07.225Z,58.31
2018-06-10T03:45:16.383Z,58.31
2018-06-10T03:46:26.054Z,58.44
2018-06-10T03:47:35.485Z,58.12
2018-06-10T03:48:44.911Z,58.12
2018-06-10T03:49:54.328Z,58.25
2018-06-10T03:51:03.805Z,58.25
2018-06-10T03:52:13.795Z,58.22
2018-06-10T03:53:22.954Z,58.22
2018-06-10T03:54:32.630Z,58.12
2018-06-10T03:55:41.792Z,58.22
2018-06-10T03:56:51.211Z,58.22
2018-06-10T03:58:00.387Z,58.22
2018-06-10T03:59:10.326Z,58.25
2018-06-10T04:00:20.251Z,58.25
2018-06-10T04:01:29.413Z,58.31
2018-06-10T04:02:39.089Z,58.31
2018-06-10T04:03:48.515Z,58.12
2018-06-10T04:04:57.424Z,58.31
2018-06-10T04:06:06.848Z,58.31
2018-06-10T04:07:16.006Z,58.22
2018-06-10T04:08:25.691Z,58.03
2018-06-10T04:09:35.114Z,58.31
2018-06-10T04:10:44.791Z,58.03
2018-06-10T04:11:54.228Z,58.31
2018-06-10T04:13:03.909Z,58.31
2018-06-10T04:14:12.823Z,58.03
2018-06-10T04:15:21.729Z,58.12
2018-06-10T04:16:31.414Z,58.31
2018-06-10T04:17:40.838Z,58.12
2018-06-10T04:18:49.748Z,58.12
2018-06-10T04:19:58.959Z,58.12
2018-06-10T04:21:08.422Z,58.03
2018-06-10T04:22:17.594Z,58.12
2018-06-10T04:23:27.019Z,58.12
2018-06-10T04:24:36.707Z,58.03
2018-06-10T04:25:46.408Z,58.03
2018-06-10T04:26:55.606Z,58.12
2018-06-10T04:28:05.011Z,58.03
2018-06-10T04:29:14.723Z,58.03
2018-06-10T04:30:24.143Z,58.12
2018-06-10T04:31:33.563Z,58.12
2018-06-10T04:32:42.978Z,58.03
2018-06-10T04:33:51.887Z,58.03
2018-06-10T04:35:01.066Z,58.22
2018-06-10T04:36:10.476Z,58.22
2018-06-10T04:37:19.877Z,58.03
2018-06-10T04:38:29.548Z,58.22
2018-06-10T04:39:38.970Z,58.12
2018-06-10T04:40:48.462Z,58.22
2018-06-10T04:41:57.622Z,58.22
2018-06-10T04:43:06.803Z,58.22
2018-06-10T04:44:16.492Z,58.12
2018-06-10T04:45:25.911Z,58.12
2018-06-10T04:46:35.342Z,58.22
2018-06-10T04:47:44.244Z,58.22
2018-06-10T04:48:53.972Z,58.22
2018-06-10T04:50:03.673Z,58.31
2018-06-10T04:51:12.598Z,58.12
2018-06-10T04:52:22.038Z,58.22
2018-06-10T04:53:31.213Z,58.22
2018-06-10T04:54:40.387Z,58.22
2018-06-10T04:55:49.809Z,58.22
2018-06-10T04:56:58.725Z,58.12
2018-06-10T04:58:08.151Z,57.93
2018-06-10T04:59:17.318Z,57.83
2018-06-10T05:00:27.250Z,58.22
2018-06-10T05:01:36.670Z,58.12
2018-06-10T05:02:46.084Z,58.22
2018-06-10T05:03:55.778Z,57.93
2018-06-10T05:05:05.453Z,58.03
2018-06-10T05:06:14.685Z,58.03
2018-06-10T05:07:24.523Z,58.03
2018-06-10T05:08:33.680Z,57.83
2018-06-10T05:09:43.345Z,58.22
2018-06-10T05:10:52.248Z,57.93
2018-06-10T05:12:01.412Z,57.83
2018-06-10T05:13:10.321Z,58.03
2018-06-10T05:14:20.003Z,58.22
2018-06-10T05:15:29.200Z,57.93
2018-06-10T05:16:38.085Z,58.03
2018-06-10T05:17:47.499Z,58.22
2018-06-10T05:18:56.386Z,58.22
2018-06-10T05:20:06.042Z,57.83
2018-06-10T05:21:16.019Z,58.03
2018-06-10T05:22:25.693Z,57.93
2018-06-10T05:23:35.361Z,57.83
2018-06-10T05:24:44.521Z,58.03
2018-06-10T05:25:54.897Z,57.93
2018-06-10T05:27:04.333Z,57.83
2018-06-10T05:28:14.015Z,58.22
2018-06-10T05:29:22.928Z,58.03
2018-06-10T05:30:32.351Z,57.83
2018-06-10T05:31:42.039Z,57.83
2018-06-10T05:32:51.469Z,57.93
2018-06-10T05:34:01.147Z,58.12
2018-06-10T05:35:10.353Z,57.93
2018-06-10T05:36:19.272Z,58.12
2018-06-10T05:37:28.692Z,57.93
2018-06-10T05:38:38.122Z,58.31
2018-06-10T05:39:47.547Z,58.22
2018-06-10T05:40:56.760Z,58.22
2018-06-10T05:42:05.945Z,58.22
2018-06-10T05:43:15.364Z,58.03
2018-06-10T05:44:24.790Z,58.22
2018-06-10T05:45:34.495Z,58.12
2018-06-10T05:46:43.932Z,58.22
2018-06-10T05:47:53.614Z,58.12
2018-06-10T05:49:02.532Z,58.03
2018-06-10T05:50:11.947Z,58.22
2018-06-10T05:51:21.724Z,58.03
2018-06-10T05:52:31.226Z,58.41
2018-06-10T05:53:40.399Z,58.31
2018-06-10T05:54:49.606Z,58.31
2018-06-10T05:55:59.305Z,58.31
2018-06-10T05:57:08.473Z,58.22
2018-06-10T05:58:17.449Z,58.22
2018-06-10T05:59:27.135Z,58.31
2018-06-10T06:00:36.304Z,58.22
2018-06-10T06:01:45.470Z,58.22
2018-06-10T06:02:54.891Z,58.12
2018-06-10T06:04:04.568Z,58.22
2018-06-10T06:05:14.939Z,58.22
2018-06-10T06:06:24.108Z,58.22
2018-06-10T06:07:33.271Z,58.22
2018-06-10T06:08:42.970Z,58.22
2018-06-10T06:09:52.670Z,58.22
2018-06-10T06:11:02.092Z,58.22
2018-06-10T06:12:11.255Z,58.22
2018-06-10T06:13:20.955Z,58.22
2018-06-10T06:14:31.205Z,58.22
2018-06-10T06:15:40.621Z,58.22
2018-06-10T06:16:49.785Z,58.22
2018-06-10T06:17:59.203Z,58.22
2018-06-10T06:19:08.634Z,58.22
2018-06-10T06:20:17.590Z,58.22
2018-06-10T06:21:27.279Z,58.22
2018-06-10T06:22:36.707Z,58.22
2018-06-10T06:23:46.368Z,58.31
2018-06-10T06:24:56.046Z,58.22
2018-06-10T06:26:05.213Z,58.22
2018-06-10T06:27:14.629Z,58.12
2018-06-10T06:28:24.153Z,58.22
2018-06-10T06:29:33.065Z,58.41
2018-06-10T06:30:42.750Z,58.22
2018-06-10T06:31:52.156Z,58.22
2018-06-10T06:33:02.131Z,58.22
2018-06-10T06:34:11.544Z,58.03
2018-06-10T06:35:21.462Z,58.31
2018-06-10T06:36:30.453Z,58.41
2018-06-10T06:37:39.873Z,58.41
2018-06-10T06:38:49.309Z,58.31
2018-06-10T06:39:58.989Z,58.12
2018-06-10T06:41:08.397Z,58.41
2018-06-10T06:42:17.563Z,58.31
2018-06-10T06:43:27.255Z,58.12
2018-06-10T06:44:36.924Z,58.31
2018-06-10T06:45:46.335Z,57.93
2018-06-10T06:46:55.508Z,58.03
2018-06-10T06:48:04.986Z,57.93
2018-06-10T06:49:14.394Z,57.93
2018-06-10T06:50:24.112Z,58.12
2018-06-10T06:51:33.806Z,58.12
2018-06-10T06:52:42.727Z,58.12
2018-06-10T06:53:51.374Z,58.03
2018-06-10T06:55:00.828Z,57.83
2018-06-10T06:56:10.514Z,58.12
2018-06-10T06:57:19.936Z,57.93
2018-06-10T06:58:29.137Z,58.12
2018-06-10T06:59:38.569Z,58.12
2018-06-10T07:00:48.246Z,57.93
2018-06-10T07:01:57.949Z,58.03
2018-06-10T07:03:07.367Z,58.12
2018-06-10T07:04:16.821Z,58.12
2018-06-10T07:05:26.655Z,57.93
2018-06-10T07:06:36.605Z,57.93
2018-06-10T07:07:46.148Z,58.03
2018-06-10T07:08:55.529Z,58.03
2018-06-10T07:10:04.953Z,57.93
2018-06-10T07:11:14.624Z,57.93
2018-06-10T07:12:23.791Z,57.96
2018-06-10T07:13:33.218Z,57.96
2018-06-10T07:14:42.177Z,58.12
2018-06-10T07:15:51.598Z,57.93
2018-06-10T07:17:00.776Z,58.03
2018-06-10T07:18:10.192Z,57.93
2018-06-10T07:19:19.089Z,57.93
2018-06-10T07:20:28.518Z,58.03
2018-06-10T07:21:38.470Z,58.12
2018-06-10T07:22:48.421Z,57.93
2018-06-10T07:23:57.592Z,58.12
2018-06-10T07:25:07.020Z,58.12
2018-06-10T07:26:16.439Z,58.03
2018-06-10T07:27:25.861Z,57.93
2018-06-10T07:28:35.332Z,58.12
2018-06-10T07:29:44.497Z,58.12
2018-06-10T07:30:53.917Z,57.93
2018-06-10T07:32:03.889Z,58.03
2018-06-10T07:33:13.593Z,57.93
2018-06-10T07:34:23.291Z,58.12
2018-06-10T07:35:32.996Z,58.03
2018-06-10T07:36:42.425Z,58.12
2018-06-10T07:37:52.363Z,57.96
2018-06-10T07:39:02.301Z,58.03
2018-06-10T07:40:11.732Z,57.93
2018-06-10T07:41:21.150Z,58.12
2018-06-10T07:42:30.817Z,58.12
2018-06-10T07:43:40.493Z,58.03
2018-06-10T07:44:50.167Z,57.93
2018-06-10T07:46:00.100Z,58.12
2018-06-10T07:47:10.022Z,58.12
2018-06-10T07:48:20.051Z,58.03
2018-06-10T07:49:30.308Z,57.93
2018-06-10T07:50:40.033Z,58.05
2018-06-10T07:51:49.508Z,58.03
2018-06-10T07:52:58.939Z,57.96
2018-06-10T07:54:08.378Z,57.93
2018-06-10T07:55:18.271Z,58.12
2018-06-10T07:56:27.438Z,57.93
2018-06-10T07:57:37.371Z,58.15
2018-06-10T07:58:47.063Z,58.31
2018-06-10T07:59:55.978Z,58.03
2018-06-10T08:01:06.017Z,58.12
2018-06-10T08:02:15.467Z,58.41
2018-06-10T08:03:24.389Z,58.22
2018-06-10T08:04:33.042Z,58.22
2018-06-10T08:05:42.726Z,58.22
2018-06-10T08:06:52.144Z,58.22
2018-06-10T08:08:01.350Z,57.64
2018-06-10T08:09:11.306Z,57.64
2018-06-10T08:10:20.232Z,57.67
2018-06-10T08:11:29.655Z,57.83
2018-06-10T08:12:39.637Z,57.64
2018-06-10T08:13:48.543Z,57.96
2018-06-10T08:14:57.733Z,57.93
2018-06-10T08:16:06.729Z,57.83
2018-06-10T08:17:16.423Z,58.03
2018-06-10T08:18:25.851Z,57.76
2018-06-10T08:19:35.292Z,57.93
2018-06-10T08:20:44.970Z,57.64
2018-06-10T08:21:54.136Z,57.44
2018-06-10T08:23:03.813Z,57.83
2018-06-10T08:24:13.485Z,57.73
2018-06-10T08:25:23.434Z,57.83
2018-06-10T08:26:33.164Z,58.05
2018-06-10T08:27:42.649Z,57.83
2018-06-10T08:28:52.323Z,58.22
2018-06-10T08:30:02.276Z,57.83
2018-06-10T08:31:11.240Z,57.64
2018-06-10T08:32:20.918Z,57.64
2018-06-10T08:33:30.337Z,58.22
2018-06-10T08:34:40.267Z,57.83
2018-06-10T08:35:49.406Z,58.22
2018-06-10T08:36:59.100Z,57.83
2018-06-10T08:38:09.039Z,58.44
2018-06-10T08:39:18.463Z,58.03
2018-06-10T08:40:28.138Z,58.22
2018-06-10T08:41:37.810Z,58.03
2018-06-10T08:42:47.477Z,58.03
2018-06-10T08:43:56.918Z,58.41
2018-06-10T08:45:06.973Z,58.03
2018-06-10T08:46:16.142Z,57.93
2018-06-10T08:47:25.816Z,58.03
2018-06-10T08:48:35.230Z,58.12
2018-06-10T08:49:44.659Z,57.96
2018-06-10T08:50:54.394Z,57.93
2018-06-10T08:52:04.334Z,58.03
2018-06-10T08:53:13.805Z,57.93
2018-06-10T08:54:23.220Z,57.93
2018-06-10T08:55:32.393Z,58.03
2018-06-10T08:56:42.085Z,58.05
2018-06-10T08:57:51.766Z,58.12
2018-06-10T08:59:00.958Z,58.41
2018-06-10T09:00:10.631Z,58.03
2018-06-10T09:01:20.060Z,58.03
2018-06-10T09:02:29.491Z,58.03
2018-06-10T09:03:39.298Z,58.05
2018-06-10T09:04:48.742Z,57.96
2018-06-10T09:05:57.907Z,57.93
2018-06-10T09:07:07.351Z,58.03
2018-06-10T09:08:16.659Z,57.96
2018-06-10T09:09:26.345Z,58.15
2018-06-10T09:10:35.006Z,57.93
2018-06-10T09:11:44.466Z,58.12
2018-06-10T09:12:53.665Z,57.93
2018-06-10T09:14:03.985Z,57.93
2018-06-10T09:15:13.403Z,58.03
2018-06-10T09:16:24.346Z,58.03
2018-06-10T09:17:34.011Z,57.93
2018-06-10T09:18:43.160Z,58.22
2018-06-10T09:19:52.575Z,57.93
2018-06-10T09:21:02.010Z,57.86
2018-06-10T09:22:11.497Z,58.41
2018-06-10T09:23:21.009Z,58.41
2018-06-10T09:24:30.685Z,58.12
2018-06-10T09:25:39.876Z,58.22
2018-06-10T09:26:49.083Z,58.03
2018-06-10T09:27:58.241Z,58.22
2018-06-10T09:29:07.671Z,58.41
2018-06-10T09:30:16.622Z,58.03
2018-06-10T09:31:26.082Z,58.22
2018-06-10T09:32:35.579Z,58.22
2018-06-10T09:33:44.526Z,57.73
2018-06-10T09:34:53.465Z,57.73
2018-06-10T09:36:02.633Z,57.93
2018-06-10T09:37:12.122Z,57.93
2018-06-10T09:38:21.380Z,57.73
2018-06-10T09:39:31.824Z,57.67
2018-06-10T09:40:41.253Z,57.34
2018-06-10T09:41:50.662Z,57.64
2018-06-10T09:43:01.580Z,57.47
2018-06-10T09:44:10.603Z,57.37
2018-06-10T09:45:20.197Z,57.47
2018-06-10T09:46:30.897Z,57.47
2018-06-10T09:47:40.173Z,57.37
2018-06-10T09:48:48.988Z,57.67
2018-06-10T09:49:58.310Z,57.37
2018-06-10T09:51:07.412Z,57.37
2018-06-10T09:52:17.125Z,57.47
2018-06-10T09:53:26.814Z,57.28
2018-06-10T09:54:36.055Z,57.37
2018-06-10T09:55:46.802Z,57.28
2018-06-10T09:56:56.600Z,57.28
2018-06-10T09:58:05.863Z,57.37
2018-06-10T09:59:15.547Z,57.37
2018-06-10T10:00:25.032Z,57.28
2018-06-10T10:01:34.751Z,57.28
2018-06-10T10:02:44.705Z,57.18
2018-06-10T10:03:55.883Z,57.28
2018-06-10T10:05:05.521Z,57.28
2018-06-10T10:06:15.279Z,57.28
2018-06-10T10:07:25.368Z,57.08
2018-06-10T10:08:35.077Z,57.08
2018-06-10T10:09:44.558Z,57.08
2018-06-10T10:10:53.755Z,57.08
2018-06-10T10:12:02.922Z,57.28
2018-06-10T10:13:12.654Z,57.28
2018-06-10T10:14:22.866Z,57.28
2018-06-10T10:15:31.771Z,57.28
2018-06-10T10:16:41.213Z,57.28
2018-06-10T10:17:50.626Z,57.28
2018-06-10T10:19:00.331Z,57.28
2018-06-10T10:20:10.395Z,57.28
2018-06-10T10:21:19.814Z,57.28
2018-06-10T10:22:29.239Z,57.28
2018-06-10T10:23:38.943Z,57.37
2018-06-10T10:24:48.750Z,57.28
2018-06-10T10:25:58.548Z,57.37
2018-06-10T10:27:08.223Z,57.37
2018-06-10T10:28:17.655Z,57.28
2018-06-10T10:29:27.359Z,57.28
2018-06-10T10:30:36.523Z,57.28
2018-06-10T10:31:46.228Z,57.28
2018-06-10T10:32:55.981Z,57.08
2018-06-10T10:34:04.883Z,57.18
2018-06-10T10:35:14.322Z,57.37
2018-06-10T10:36:23.756Z,57.57
2018-06-10T10:37:33.414Z,57.18
2018-06-10T10:38:42.568Z,57.18
2018-06-10T10:39:52.022Z,57.57
2018-06-10T10:41:01.817Z,57.47
2018-06-10T10:42:11.230Z,57.08
2018-06-10T10:43:20.371Z,57.08
2018-06-10T10:44:29.305Z,57.28
2018-06-10T10:45:38.972Z,57.18
2018-06-10T10:46:48.142Z,57.28
2018-06-10T10:47:57.039Z,57.28
2018-06-10T10:49:05.941Z,57.28
2018-06-10T10:50:14.843Z,57.28
2018-06-10T10:51:24.525Z,57.28
2018-06-10T10:52:33.948Z,57.18
2018-06-10T10:53:43.379Z,57.18
2018-06-10T10:54:52.680Z,57.28
2018-06-10T10:56:02.334Z,57.28
2018-06-10T10:57:12.585Z,57.28
2018-06-10T10:58:21.750Z,57.37
2018-06-10T10:59:31.431Z,57.18
2018-06-10T11:00:40.591Z,57.28
2018-06-10T11:01:49.759Z,57.31
2018-06-10T11:02:58.965Z,57.31
2018-06-10T11:04:08.651Z,57.08
2018-06-10T11:05:18.582Z,57.18
2018-06-10T11:06:28.274Z,57.11
2018-06-10T11:07:37.173Z,57.31
2018-06-10T11:08:47.101Z,57.21
2018-06-10T11:09:56.265Z,57.28
2018-06-10T11:11:05.944Z,57.31
2018-06-10T11:12:15.110Z,57.31
2018-06-10T11:13:25.001Z,57.11
2018-06-10T11:14:34.683Z,57.31
2018-06-10T11:15:43.852Z,57.28
2018-06-10T11:16:53.281Z,57.37
2018-06-10T11:18:02.438Z,57.31
2018-06-10T11:19:11.856Z,57.31
2018-06-10T11:20:21.547Z,57.31
2018-06-10T11:21:31.467Z,57.4
2018-06-10T11:22:40.960Z,57.4
2018-06-10T11:23:50.642Z,57.37
2018-06-10T11:25:00.351Z,57.37
2018-06-10T11:26:09.783Z,57.28
2018-06-10T11:27:19.294Z,57.4
2018-06-10T11:28:28.937Z,57.4
2018-06-10T11:29:38.855Z,57.57
2018-06-10T11:30:48.283Z,57.6
2018-06-10T11:31:57.708Z,57.6
2018-06-10T11:33:07.139Z,57.5
2018-06-10T11:34:16.312Z,57.5
2018-06-10T11:35:25.776Z,57.4
2018-06-10T11:36:35.439Z,57.6
2018-06-10T11:37:45.370Z,57.6
2018-06-10T11:38:55.042Z,57.5
2018-06-10T11:40:04.198Z,57.5
2018-06-10T11:41:13.360Z,57.6
2018-06-10T11:42:22.538Z,57.67
2018-06-10T11:43:32.650Z,57.4
2018-06-10T11:44:42.343Z,57.57
2018-06-10T11:45:52.270Z,57.69
2018-06-10T11:47:01.959Z,57.76
2018-06-10T11:48:11.376Z,57.57
2018-06-10T11:49:20.527Z,57.96
2018-06-10T11:50:30.203Z,57.57
2018-06-10T11:51:39.359Z,57.96
2018-06-10T11:52:49.287Z,57.76
2018-06-10T11:53:58.276Z,57.76
2018-06-10T11:55:07.464Z,58.05
2018-06-10T11:56:16.904Z,57.86
2018-06-10T11:57:26.562Z,57.96
2018-06-10T11:58:36.406Z,57.96
2018-06-10T11:59:45.305Z,57.86
2018-06-10T12:00:54.478Z,57.76
2018-06-10T12:02:04.035Z,57.67
2018-06-10T12:03:13.460Z,57.86
2018-06-10T12:04:23.145Z,57.96
2018-06-10T12:05:32.567Z,57.86
2018-06-10T12:06:42.252Z,57.76
2018-06-10T12:07:51.706Z,57.76
2018-06-10T12:09:01.263Z,57.76
2018-06-10T12:10:10.683Z,57.76
2018-06-10T12:11:20.366Z,57.67
2018-06-10T12:12:29.784Z,57.67
2018-06-10T12:13:39.774Z,57.76
2018-06-10T12:14:49.558Z,57.76
2018-06-10T12:15:58.706Z,57.67
2018-06-10T12:17:08.402Z,57.57
2018-06-10T12:18:18.183Z,57.37
2018-06-10T12:19:27.849Z,57.37
2018-06-10T12:20:37.273Z,57.47
2018-06-10T12:21:46.425Z,57.86
2018-06-10T12:22:55.928Z,57.57
2018-06-10T12:24:05.490Z,57.57
2018-06-10T12:25:15.187Z,57.69
2018-06-10T12:26:25.149Z,57.76
2018-06-10T12:27:34.333Z,57.86
2018-06-10T12:28:43.760Z,57.86
2018-06-10T12:29:53.431Z,57.67
2018-06-10T12:31:02.635Z,57.96
2018-06-10T12:32:12.095Z,57.96
2018-06-10T12:33:21.828Z,57.76
2018-06-10T12:34:31.531Z,57.96
2018-06-10T12:35:40.683Z,57.67
2018-06-10T12:36:50.350Z,57.67
2018-06-10T12:37:59.770Z,57.67
2018-06-10T12:39:09.186Z,57.67
2018-06-10T12:40:18.370Z,58.05
2018-06-10T12:41:28.173Z,57.96
2018-06-10T12:42:37.765Z,58.44
2018-06-10T12:43:47.161Z,58.05
2018-06-10T12:44:56.318Z,57.96
2018-06-10T12:46:05.742Z,57.96
2018-06-10T12:47:15.406Z,58.05
2018-06-10T12:48:24.341Z,57.96
2018-06-10T12:49:33.597Z,58.05
2018-06-10T12:50:42.776Z,57.96
2018-06-10T12:51:51.715Z,58.05
2018-06-10T12:53:00.845Z,58.05
2018-06-10T12:54:09.763Z,57.96
2018-06-10T12:55:19.448Z,57.96
2018-06-10T12:56:28.627Z,58.05
2018-06-10T12:57:38.077Z,58.15
2018-06-10T12:58:47.758Z,57.96
2018-06-10T12:59:57.496Z,57.96
2018-06-10T13:01:06.927Z,58.15
2018-06-10T13:02:16.469Z,57.96
2018-06-10T13:03:26.035Z,57.96
2018-06-10T13:04:35.480Z,58.05
2018-06-10T13:05:45.428Z,58.05
2018-06-10T13:06:54.848Z,58.15
2018-06-10T13:08:04.331Z,58.15
2018-06-10T13:09:13.756Z,58.15
2018-06-10T13:10:22.930Z,58.05
2018-06-10T13:11:32.824Z,57.96
2018-06-10T13:12:41.989Z,57.96
2018-06-10T13:13:51.429Z,57.96
2018-06-10T13:15:00.655Z,57.96
2018-06-10T13:16:09.564Z,58.05
2018-06-10T13:17:19.267Z,58.25
2018-06-10T13:18:28.948Z,58.15
2018-06-10T13:19:38.379Z,58.15
2018-06-10T13:20:47.867Z,58.15
2018-06-10T13:21:57.062Z,58.44
2018-06-10T13:23:06.282Z,57.76
2018-06-10T13:24:15.455Z,58.05
2018-06-10T13:25:24.874Z,58.15
2018-06-10T13:26:34.038Z,57.86
2018-06-10T13:27:43.590Z,57.96
2018-06-10T13:28:53.063Z,57.86
2018-06-10T13:30:02.001Z,57.86
2018-06-10T13:31:11.176Z,58.05
2018-06-10T13:32:20.356Z,57.67
2018-06-10T13:33:30.030Z,57.76
2018-06-10T13:34:39.455Z,57.57
2018-06-10T13:35:48.957Z,57.47
2018-06-10T13:36:58.668Z,57.57
2018-06-10T13:38:07.577Z,57.57
2018-06-10T13:39:17.004Z,57.47
2018-06-10T13:40:25.977Z,57.47
2018-06-10T13:41:35.690Z,57.47
2018-06-10T13:42:44.359Z,57.47
2018-06-10T13:43:53.775Z,57.86
2018-06-10T13:45:03.453Z,57.57
2018-06-10T13:46:12.169Z,57.57
2018-06-10T13:47:22.247Z,57.37
2018-06-10T13:48:31.696Z,57.57
2018-06-10T13:49:41.125Z,57.37
2018-06-10T13:50:50.298Z,57.37
2018-06-10T13:52:00.226Z,57.28
2018-06-10T13:53:09.384Z,57.37
2018-06-10T13:54:18.542Z,57.28
2018-06-10T13:55:27.948Z,57.18
2018-06-10T13:56:37.876Z,57.28
2018-06-10T13:57:46.806Z,57.37
2018-06-10T13:58:56.277Z,57.18
2018-06-10T14:00:05.806Z,57.18
2018-06-10T14:01:15.283Z,57.37
2018-06-10T14:02:24.204Z,57.37
2018-06-10T14:03:33.381Z,57.47
2018-06-10T14:04:42.804Z,57.37
2018-06-10T14:05:51.965Z,57.37
2018-06-10T14:07:01.740Z,57.18
2018-06-10T14:08:11.199Z,57.4
2018-06-10T14:09:19.840Z,57.6
2018-06-10T14:10:29.553Z,57.5
2018-06-10T14:11:39.228Z,57.6
2018-06-10T14:12:48.655Z,57.5
2018-06-10T14:13:57.823Z,57.6
2018-06-10T14:15:07.818Z,57.47
2018-06-10T14:16:17.553Z,57.57
2018-06-10T14:17:26.981Z,57.5
2018-06-10T14:18:36.147Z,57.47
2018-06-10T14:19:45.625Z,57.6
2018-06-10T14:20:55.656Z,57.57
2018-06-10T14:22:05.587Z,57.6
2018-06-10T14:23:15.369Z,57.5
2018-06-10T14:24:24.672Z,57.4
2018-06-10T14:25:34.146Z,57.5
2018-06-10T14:26:43.302Z,57.31
2018-06-10T14:27:52.731Z,57.4
2018-06-10T14:29:01.630Z,57.47
2018-06-10T14:30:11.309Z,57.5
2018-06-10T14:31:20.861Z,57.31
2018-06-10T14:32:30.292Z,57.5
2018-06-10T14:33:39.957Z,57.21
2018-06-10T14:34:49.404Z,57.18
2018-06-10T14:35:59.095Z,57.11
2018-06-10T14:37:08.000Z,57.4
2018-06-10T14:38:17.740Z,57.31
2018-06-10T14:39:27.394Z,56.98
2018-06-10T14:40:37.331Z,56.7
2018-06-10T14:41:46.997Z,56.72
2018-06-10T14:42:56.673Z,56.92
2018-06-10T14:44:06.100Z,57.01
2018-06-10T14:45:15.558Z,57.11
2018-06-10T14:46:25.562Z,56.89
2018-06-10T14:47:35.248Z,57.01
2018-06-10T14:48:44.967Z,56.92
2018-06-10T14:49:54.139Z,56.98
2018-06-10T14:51:03.559Z,56.92
2018-06-10T14:52:12.785Z,57.01
2018-06-10T14:53:22.446Z,57.11
2018-06-10T14:54:31.644Z,57.01
2018-06-10T14:55:41.070Z,56.92